Time;durP1;ratioP1;P1;durP2;ratioP2;P2;SDS_P1;SDS_P2;PMS_P1;PMS_P2;Temp;Humidity;BMP_temperature;BMP_pressure;BME280_temperature;BME280_humidity;BME280_pressure;Samples;Min_cycle;Max_cycle;Signal;HPM_P1;HPM_P2
2022/03/19 00:01:32;;;;;;;11.50;9.70;;;8.30;99.90;;;;;;5035291;28;20695;-70
2022/03/19 00:03:57;;;;;;;11.30;9.20;;;8.30;99.90;;;;;;5036048;28;20500;-71
2022/03/19 00:06:24;;;;;;;15.03;10.10;;;8.20;99.90;;;;;;5036424;28;20193;-71
2022/03/19 00:08:50;;;;;;;12.13;9.70;;;8.20;99.90;;;;;;5035771;28;20601;-70
2022/03/19 00:11:15;;;;;;;9.70;8.80;;;8.10;99.90;;;;;;5036189;28;20464;-68
2022/03/19 00:13:41;;;;;;;14.47;9.27;;;8.10;99.90;;;;;;5035576;28;20471;-70
2022/03/19 00:16:06;;;;;;;11.93;10.17;;;8.10;99.90;;;;;;5036066;28;21139;-71
2022/03/19 00:18:32;;;;;;;15.93;10.20;;;8.10;99.90;;;;;;5035829;28;20178;-71
2022/03/19 00:20:58;;;;;;;14.27;9.43;;;8.10;99.90;;;;;;5036087;28;20328;-70
2022/03/19 00:23:24;;;;;;;13.13;10.20;;;8.10;99.90;;;;;;5017787;28;20641;-70
2022/03/19 00:25:50;;;;;;;13.67;10.17;;;8.10;99.90;;;;;;5035491;28;20901;-70
2022/03/19 00:28:18;;;;;;;12.83;10.83;;;8.10;99.90;;;;;;5071412;23;20488;-69
2022/03/19 00:30:45;;;;;;;12.07;9.70;;;8.00;99.90;;;;;;5054832;28;20172;-68
2022/03/19 00:33:12;;;;;;;14.57;10.10;;;8.00;99.90;;;;;;5036866;28;20496;-70
2022/03/19 00:35:38;;;;;;;11.90;9.60;;;8.00;99.90;;;;;;5054830;28;20457;-70
2022/03/19 00:38:04;;;;;;;12.90;10.30;;;8.00;99.90;;;;;;5054911;28;20511;-69
2022/03/19 00:40:33;;;;;;;13.60;10.63;;;7.90;99.90;;;;;;5054823;28;20168;-69
2022/03/19 00:42:58;;;;;;;13.73;10.00;;;7.90;99.90;;;;;;5054714;28;20417;-69
2022/03/19 00:45:24;;;;;;;12.80;11.07;;;8.00;99.90;;;;;;5054655;28;20406;-70
2022/03/19 00:47:49;;;;;;;12.17;9.83;;;7.90;99.90;;;;;;5054569;28;20222;-69
2022/03/19 00:50:15;;;;;;;11.63;10.43;;;7.90;99.90;;;;;;5054557;28;20221;-70
2022/03/19 00:52:40;;;;;;;16.63;11.17;;;7.80;99.90;;;;;;5036621;28;20186;-69
2022/03/19 00:55:07;;;;;;;15.23;10.70;;;7.80;99.90;;;;;;5054529;28;20205;-69
2022/03/19 00:57:44;;;;;;;12.43;9.67;;;7.80;99.90;;;;;;5054354;28;20194;-69
2022/03/19 01:00:11;;;;;;;11.23;10.03;;;7.70;99.90;;;;;;5054756;28;20480;-69
2022/03/19 01:02:41;;;;;;;13.67;11.33;;;7.70;99.90;;;;;;5054219;28;20423;-68
2022/03/19 01:05:08;;;;;;;10.73;9.33;;;7.60;99.90;;;;;;5054373;28;20418;-69
2022/03/19 01:07:41;;;;;;;16.00;10.63;;;7.50;99.90;;;;;;5054392;28;20465;-69
2022/03/19 01:10:07;;;;;;;11.73;10.00;;;7.40;99.90;;;;;;5054354;28;20409;-70
2022/03/19 01:12:33;;;;;;;10.87;9.83;;;7.30;99.90;;;;;;5054076;28;20819;-69
2022/03/19 01:14:58;;;;;;;13.30;10.97;;;7.40;99.90;;;;;;5054101;28;20544;-70
2022/03/19 01:17:24;;;;;;;14.50;10.30;;;7.30;99.90;;;;;;5054131;28;20187;-69
2022/03/19 01:19:52;;;;;;;12.67;10.10;;;7.30;99.90;;;;;;5054216;28;20556;-69
2022/03/19 01:22:19;;;;;;;11.03;9.93;;;7.30;99.90;;;;;;5053693;28;20261;-69
2022/03/19 01:24:44;;;;;;;13.83;10.27;;;7.20;99.90;;;;;;5036144;28;20416;-71
2022/03/19 01:27:10;;;;;;;15.20;10.63;;;7.10;99.90;;;;;;5053931;28;21034;-68
2022/03/19 01:29:36;;;;;;;11.27;10.07;;;7.00;99.90;;;;;;5053943;28;20405;-69
2022/03/19 01:32:01;;;;;;;12.10;9.90;;;7.00;99.90;;;;;;5053633;28;20638;-69
2022/03/19 01:34:27;;;;;;;12.33;10.83;;;6.90;99.90;;;;;;5053801;28;20190;-69
2022/03/19 01:36:53;;;;;;;12.83;10.43;;;6.80;99.90;;;;;;5035803;28;20206;-68
2022/03/19 01:39:19;;;;;;;11.30;9.43;;;6.80;99.90;;;;;;5053461;28;20174;-69
2022/03/19 01:41:45;;;;;;;10.40;9.10;;;6.90;99.90;;;;;;5053420;28;20978;-69
2022/03/19 01:44:18;;;;;;;11.40;9.47;;;7.00;99.90;;;;;;5053845;28;20500;-68
2022/03/19 01:47:13;;;;;;;12.80;9.07;;;6.90;99.90;;;;;;5053535;28;20193;-68
2022/03/19 01:49:38;;;;;;;11.43;9.80;;;6.90;99.90;;;;;;4953225;29;21034;-69
2022/03/19 01:52:05;;;;;;;12.00;9.30;;;6.90;99.90;;;;;;4953160;29;20417;-69
2022/03/19 01:54:34;;;;;;;13.77;10.13;;;6.80;99.90;;;;;;4952998;29;20746;-69
2022/03/19 01:57:01;;;;;;;14.93;10.27;;;6.80;99.90;;;;;;4953431;29;20441;-68
2022/03/19 01:59:30;;;;;;;12.60;10.20;;;6.70;99.90;;;;;;4953349;29;20432;-68
2022/03/19 02:01:56;;;;;;;15.40;10.47;;;6.60;99.90;;;;;;4953792;29;20779;-69
2022/03/19 02:04:21;;;;;;;12.70;9.53;;;6.50;99.90;;;;;;4953158;29;20429;-69
2022/03/19 02:06:47;;;;;;;13.60;10.90;;;6.50;99.90;;;;;;4952889;29;20206;-69
2022/03/19 02:09:13;;;;;;;15.17;10.40;;;6.40;99.90;;;;;;4952447;29;20213;-69
2022/03/19 02:11:39;;;;;;;13.13;10.50;;;6.30;99.90;;;;;;4952583;29;20225;-69
2022/03/19 02:14:05;;;;;;;12.87;10.07;;;6.30;99.90;;;;;;4952592;29;20468;-69
2022/03/19 02:16:30;;;;;;;12.77;10.77;;;6.20;99.90;;;;;;4952746;29;20263;-69
2022/03/19 02:18:58;;;;;;;11.00;9.60;;;6.20;99.90;;;;;;4952718;29;20181;-69
2022/03/19 02:21:23;;;;;;;14.57;9.40;;;6.20;99.90;;;;;;4952616;29;20264;-69
2022/03/19 02:26:45;;;;;;;16.17;10.63;;;6.00;99.90;;;;;;5029919;28;20635;-69
2022/03/19 02:29:11;;;;;;;13.97;10.33;;;6.00;99.90;;;;;;5052887;28;20925;-68
2022/03/19 02:31:40;;;;;;;13.23;9.60;;;6.00;99.90;;;;;;5052595;28;20450;-68
2022/03/19 02:34:08;;;;;;;12.63;9.73;;;6.00;99.90;;;;;;5052656;28;20501;-70
2022/03/19 02:36:40;;;;;;;16.33;10.60;;;5.90;99.90;;;;;;5052813;28;20404;-69
2022/03/19 02:39:31;;;;;;;14.87;10.90;;;5.90;99.90;;;;;;5052621;28;20405;-69
2022/03/19 02:42:07;;;;;;;16.83;10.20;;;5.90;99.90;;;;;;5052326;28;21138;-69
2022/03/19 02:44:33;;;;;;;11.60;9.73;;;5.90;99.90;;;;;;5052374;28;20771;-68
2022/03/19 02:47:01;;;;;;;11.93;10.20;;;6.00;99.90;;;;;;5052228;28;20432;-68
2022/03/19 02:49:26;;;;;;;16.30;10.20;;;6.00;99.90;;;;;;5052246;28;20805;-69
2022/03/19 02:51:54;;;;;;;11.23;10.00;;;6.00;99.90;;;;;;5052025;28;20420;-69
2022/03/19 02:54:22;;;;;;;11.87;10.53;;;6.00;99.90;;;;;;5052192;28;20202;-68
2022/03/19 02:56:48;;;;;;;15.07;10.53;;;6.10;99.90;;;;;;5052038;28;21004;-69
2022/03/19 02:59:20;;;;;;;11.07;9.20;;;6.10;99.90;;;;;;5051961;28;20447;-68
2022/03/19 03:01:47;;;;;;;16.57;10.37;;;6.00;99.90;;;;;;5033933;28;20413;-69
2022/03/19 03:04:12;;;;;;;10.93;9.40;;;6.10;99.90;;;;;;5052090;28;20780;-68
2022/03/19 03:06:41;;;;;;;11.27;9.20;;;6.10;99.90;;;;;;5051911;28;20424;-68
2022/03/19 03:09:07;;;;;;;13.67;9.97;;;6.10;99.90;;;;;;5051439;28;20170;-69
2022/03/19 03:11:33;;;;;;;13.63;9.73;;;6.20;99.90;;;;;;5051839;28;20419;-68
2022/03/19 03:13:59;;;;;;;13.03;9.43;;;6.20;99.90;;;;;;5051737;28;20448;-69
2022/03/19 03:16:28;;;;;;;14.60;11.93;;;6.20;99.90;;;;;;5052028;28;20499;-69
2022/03/19 03:18:59;;;;;;;11.67;9.43;;;6.30;99.90;;;;;;5051968;28;20587;-69
2022/03/19 03:21:27;;;;;;;12.80;9.40;;;6.30;99.90;;;;;;5051796;28;20401;-69
2022/03/19 03:23:53;;;;;;;10.73;9.37;;;6.40;99.90;;;;;;5051638;28;20408;-69
2022/03/19 03:26:19;;;;;;;12.93;9.23;;;6.40;99.90;;;;;;5051476;28;20417;-69
2022/03/19 03:28:44;;;;;;;13.17;10.37;;;6.40;99.90;;;;;;5051762;28;20467;-68
2022/03/19 03:31:10;;;;;;;15.40;9.87;;;6.50;99.90;;;;;;5051754;28;20534;-69
2022/03/19 03:33:35;;;;;;;12.17;10.40;;;6.50;99.90;;;;;;5051344;28;20174;-69
2022/03/19 03:36:02;;;;;;;14.10;10.50;;;6.50;99.90;;;;;;5050785;28;20255;-69
2022/03/19 03:38:28;;;;;;;13.40;10.07;;;6.50;99.90;;;;;;5051411;28;20190;-69
2022/03/19 03:40:53;;;;;;;13.00;10.30;;;6.50;99.90;;;;;;5051719;28;20440;-70
2022/03/19 03:43:19;;;;;;;11.50;8.87;;;6.50;99.90;;;;;;5051256;28;20440;-69
2022/03/19 03:45:44;;;;;;;12.90;9.93;;;6.50;99.90;;;;;;5051570;28;20181;-68
2022/03/19 03:48:10;;;;;;;11.27;9.80;;;6.30;99.90;;;;;;5051472;28;20250;-69
2022/03/19 03:50:39;;;;;;;11.93;10.60;;;6.40;99.90;;;;;;5051525;28;20178;-69
2022/03/19 03:53:05;;;;;;;14.50;9.70;;;6.40;99.90;;;;;;5051160;28;20177;-70
2022/03/19 03:55:32;;;;;;;13.20;9.57;;;6.50;99.90;;;;;;5051493;28;20444;-70
2022/03/19 03:57:59;;;;;;;15.20;10.30;;;6.40;99.90;;;;;;5051552;28;20522;-69
2022/03/19 04:00:25;;;;;;;12.50;10.03;;;6.40;99.90;;;;;;5051255;28;20408;-69
2022/03/19 04:02:50;;;;;;;11.60;9.50;;;6.40;99.90;;;;;;5051036;28;20420;-69
2022/03/19 04:05:16;;;;;;;13.60;10.13;;;6.50;99.90;;;;;;5051338;28;20254;-69
2022/03/19 04:07:41;;;;;;;11.43;9.90;;;6.50;99.90;;;;;;5051092;28;20190;-68
2022/03/19 04:10:07;;;;;;;16.07;10.90;;;6.40;99.90;;;;;;5051386;28;20181;-70
2022/03/19 04:12:34;;;;;;;13.67;10.57;;;6.40;99.90;;;;;;5051041;28;20616;-69
2022/03/19 04:14:59;;;;;;;14.40;10.83;;;6.40;99.90;;;;;;5050555;28;21167;-69
2022/03/19 04:17:25;;;;;;;12.33;9.20;;;6.40;99.90;;;;;;5051150;28;20428;-69
2022/03/19 04:19:50;;;;;;;12.70;9.97;;;6.40;99.90;;;;;;5051217;28;20171;-69
2022/03/19 04:22:16;;;;;;;14.70;10.50;;;6.40;99.90;;;;;;5050903;28;20639;-69
2022/03/19 04:24:41;;;;;;;14.07;10.77;;;6.30;99.90;;;;;;5051438;28;20178;-69
2022/03/19 04:27:09;;;;;;;12.70;9.60;;;6.30;99.90;;;;;;5051177;28;20198;-69
2022/03/19 04:29:34;;;;;;;11.90;9.70;;;6.40;99.90;;;;;;5051323;28;20174;-70
2022/03/19 04:32:00;;;;;;;11.57;9.43;;;6.40;99.90;;;;;;5050887;28;20930;-70
2022/03/19 04:34:25;;;;;;;20.07;11.00;;;6.40;99.90;;;;;;5050922;28;20596;-69
2022/03/19 04:36:51;;;;;;;16.87;9.97;;;6.40;99.90;;;;;;5051408;28;20197;-69
2022/03/19 04:39:16;;;;;;;13.30;10.10;;;6.40;99.90;;;;;;5051383;28;20167;-69
2022/03/19 04:41:42;;;;;;;15.70;10.60;;;6.40;99.90;;;;;;5052044;28;20260;-70
2022/03/19 04:44:08;;;;;;;11.73;9.17;;;6.50;99.90;;;;;;5051551;28;20257;-69
2022/03/19 04:46:35;;;;;;;17.40;10.67;;;6.40;99.90;;;;;;5052530;28;20643;-70
2022/03/19 04:49:01;;;;;;;12.57;9.87;;;6.30;99.90;;;;;;5054589;28;20913;-69
2022/03/19 04:51:32;;;;;;;14.40;9.97;;;6.30;99.90;;;;;;5055736;28;20471;-69
2022/03/19 04:53:58;;;;;;;15.07;10.30;;;6.30;99.90;;;;;;5054803;28;20484;-69
2022/03/19 04:56:28;;;;;;;11.23;10.07;;;6.30;99.90;;;;;;5055367;28;20466;-69
2022/03/19 04:58:56;;;;;;;10.77;9.67;;;6.30;99.90;;;;;;5054515;28;20409;-69
2022/03/19 05:01:25;;;;;;;10.37;9.30;;;6.30;99.90;;;;;;5054305;28;20516;-69
2022/03/19 05:03:51;;;;;;;13.00;9.30;;;6.20;99.90;;;;;;5054411;28;20412;-70
2022/03/19 05:06:16;;;;;;;14.63;10.13;;;6.10;99.90;;;;;;5054544;28;20775;-69
2022/03/19 05:08:42;;;;;;;11.07;8.90;;;6.10;99.90;;;;;;5054216;28;20175;-69
2022/03/19 05:11:14;;;;;;;12.57;9.77;;;6.10;99.90;;;;;;5036567;28;20214;-69
2022/03/19 05:13:41;;;;;;;11.47;9.80;;;6.10;99.90;;;;;;5053885;28;20182;-69
2022/03/19 05:16:06;;;;;;;13.83;9.60;;;6.20;99.90;;;;;;5054169;28;20819;-69
2022/03/19 05:18:32;;;;;;;12.30;9.50;;;6.20;99.90;;;;;;5054197;28;20421;-69
2022/03/19 05:20:57;;;;;;;10.33;8.90;;;6.20;99.90;;;;;;5054140;28;20178;-70
2022/03/19 05:23:23;;;;;;;11.40;9.73;;;6.20;99.90;;;;;;5053755;28;20174;-70
2022/03/19 05:25:50;;;;;;;16.00;12.47;;;6.20;99.90;;;;;;5053897;28;20170;-69
2022/03/19 05:28:15;;;;;;;15.60;10.90;;;6.20;99.90;;;;;;5053819;28;20948;-69
2022/03/19 05:30:41;;;;;;;12.60;9.70;;;6.10;99.90;;;;;;5036092;28;20412;-69
2022/03/19 05:33:07;;;;;;;14.77;10.13;;;6.10;99.90;;;;;;5053524;28;20170;-69
2022/03/19 05:35:33;;;;;;;12.37;9.63;;;6.10;99.90;;;;;;5053599;28;20289;-69
2022/03/19 05:38:01;;;;;;;14.73;10.60;;;6.10;99.90;;;;;;5053651;28;20329;-68
2022/03/19 05:40:28;;;;;;;17.33;10.40;;;6.10;99.90;;;;;;5053689;28;20519;-69
2022/03/19 05:42:53;;;;;;;13.57;9.53;;;6.00;99.90;;;;;;5053395;28;20755;-69
2022/03/19 05:45:20;;;;;;;14.40;10.13;;;6.00;99.90;;;;;;5053551;28;20500;-69
2022/03/19 05:47:46;;;;;;;14.00;11.00;;;6.00;99.90;;;;;;5053471;28;20197;-69
2022/03/19 05:50:13;;;;;;;12.30;10.17;;;6.00;99.90;;;;;;5053396;28;20470;-70
2022/03/19 05:52:40;;;;;;;17.00;10.50;;;6.00;99.90;;;;;;5053254;28;20470;-70
2022/03/19 05:55:06;;;;;;;16.97;10.27;;;6.00;99.90;;;;;;5053400;28;20443;-69
2022/03/19 05:57:32;;;;;;;15.03;10.40;;;6.00;99.90;;;;;;5052843;28;20933;-69
2022/03/19 05:59:57;;;;;;;15.40;9.80;;;6.10;99.90;;;;;;5052894;28;20420;-69
2022/03/19 06:02:23;;;;;;;15.30;10.33;;;6.10;99.90;;;;;;5052954;28;20505;-69
2022/03/19 06:04:48;;;;;;;11.10;9.07;;;6.10;99.90;;;;;;5053153;28;20170;-70
2022/03/19 06:07:14;;;;;;;9.93;8.93;;;6.00;99.90;;;;;;5052495;28;20545;-69
2022/03/19 06:09:39;;;;;;;13.83;9.40;;;6.10;99.90;;;;;;5053196;28;20556;-69
2022/03/19 06:12:05;;;;;;;14.43;10.83;;;6.10;99.90;;;;;;5052718;28;20179;-69
2022/03/19 06:14:31;;;;;;;12.10;9.87;;;6.10;99.90;;;;;;5052841;28;20208;-69
2022/03/19 06:16:56;;;;;;;12.50;9.53;;;6.10;99.90;;;;;;5052954;28;20193;-69
2022/03/19 06:19:22;;;;;;;12.37;9.97;;;6.10;99.90;;;;;;5053010;28;20170;-69
2022/03/19 06:21:47;;;;;;;12.40;10.40;;;6.20;99.90;;;;;;5052591;28;20747;-68
2022/03/19 06:24:13;;;;;;;13.40;9.70;;;6.20;99.90;;;;;;5052873;28;20174;-68
2022/03/19 06:29:04;;;;;;;13.13;9.53;;;6.20;99.90;;;;;;5051197;22;20239;-69
2022/03/19 06:31:30;;;;;;;13.70;10.40;;;6.20;99.90;;;;;;5032749;28;20163;-69
2022/03/19 06:33:55;;;;;;;14.03;9.73;;;6.20;99.90;;;;;;5032398;28;20202;-68
2022/03/19 06:39:06;;;;;;;12.13;9.10;;;6.20;99.90;;;;;;5013311;28;20210;-69
2022/03/19 06:41:33;;;;;;;13.17;10.10;;;6.30;99.90;;;;;;5012923;28;20411;-67
2022/03/19 06:43:59;;;;;;;13.13;9.73;;;6.30;99.90;;;;;;5012704;28;20411;-68
2022/03/19 06:46:25;;;;;;;10.43;9.30;;;6.30;99.90;;;;;;5012931;28;20418;-68
2022/03/19 06:48:51;;;;;;;12.43;10.57;;;6.40;99.90;;;;;;5012851;28;20199;-68
2022/03/19 06:51:18;;;;;;;10.87;9.70;;;6.40;99.90;;;;;;5013022;28;20423;-69
2022/03/19 06:53:44;;;;;;;11.20;9.30;;;6.50;99.90;;;;;;5012496;28;20418;-68
2022/03/19 06:56:10;;;;;;;9.77;8.57;;;6.50;99.90;;;;;;5012654;28;20415;-68
2022/03/19 06:58:36;;;;;;;10.27;9.20;;;6.50;99.90;;;;;;5012449;28;20843;-68
2022/03/19 07:01:03;;;;;;;16.33;10.20;;;6.60;99.90;;;;;;5012842;28;20254;-69
2022/03/19 07:03:28;;;;;;;14.23;10.47;;;6.60;99.90;;;;;;5013221;28;20407;-68
2022/03/19 07:05:54;;;;;;;12.37;8.73;;;6.60;99.90;;;;;;4996119;28;20502;-68
2022/03/19 07:08:20;;;;;;;15.40;10.40;;;6.60;99.90;;;;;;5012061;28;20430;-68
2022/03/19 07:10:45;;;;;;;12.40;9.27;;;6.60;99.90;;;;;;5012517;28;20243;-69
2022/03/19 07:13:11;;;;;;;8.80;7.90;;;6.70;99.90;;;;;;5012600;28;20539;-70
2022/03/19 07:15:37;;;;;;;12.30;8.53;;;6.80;99.90;;;;;;5012576;28;20199;-69
2022/03/19 07:18:02;;;;;;;11.00;8.50;;;6.80;99.90;;;;;;4995034;28;20196;-68
2022/03/19 07:20:30;;;;;;;12.10;8.60;;;6.80;99.90;;;;;;5012455;28;20417;-68
2022/03/19 07:23:02;;;;;;;10.63;8.03;;;6.90;99.90;;;;;;4994953;28;20194;-69
2022/03/19 07:25:31;;;;;;;14.63;8.97;;;6.90;99.90;;;;;;5012463;28;20495;-68
2022/03/19 07:27:59;;;;;;;9.30;8.33;;;7.00;99.90;;;;;;5012203;28;20607;-69
2022/03/19 07:30:26;;;;;;;11.93;8.57;;;7.00;99.90;;;;;;5012084;28;20505;-67
2022/03/19 07:32:52;;;;;;;14.20;9.10;;;7.10;99.90;;;;;;4994406;28;20429;-68
2022/03/19 07:35:17;;;;;;;11.57;8.93;;;7.20;99.90;;;;;;5013704;28;20465;-68
2022/03/19 07:37:44;;;;;;;9.87;8.40;;;7.20;99.90;;;;;;5014872;28;21002;-68
2022/03/19 07:40:12;;;;;;;10.10;8.00;;;7.20;99.90;;;;;;5015133;28;20238;-68
2022/03/19 07:42:38;;;;;;;12.53;9.47;;;7.20;99.90;;;;;;5021130;28;20454;-69
2022/03/19 07:45:05;;;;;;;12.73;9.33;;;7.30;99.90;;;;;;5017005;28;20437;-66
2022/03/19 07:47:32;;;;;;;10.63;8.90;;;7.40;99.90;;;;;;5018314;28;20442;-67
2022/03/19 07:49:57;;;;;;;9.17;7.97;;;7.40;99.90;;;;;;5023420;28;20481;-68
2022/03/19 07:52:24;;;;;;;10.47;8.20;;;7.50;99.90;;;;;;5022773;28;20468;-68
2022/03/19 07:54:54;;;;;;;13.03;9.30;;;7.60;99.90;;;;;;5031065;28;20305;-68
2022/03/19 07:57:19;;;;;;;13.40;8.47;;;7.60;99.90;;;;;;5013328;28;20469;-67
2022/03/19 07:59:45;;;;;;;8.63;7.73;;;7.70;99.90;;;;;;5030782;28;20445;-71
2022/03/19 08:02:10;;;;;;;9.50;8.30;;;7.80;99.90;;;;;;5012757;28;20188;-70
2022/03/19 08:04:36;;;;;;;14.83;9.07;;;7.90;99.90;;;;;;5031024;28;20226;-69
2022/03/19 08:07:01;;;;;;;12.07;9.20;;;7.90;99.90;;;;;;5030597;28;20201;-68
2022/03/19 08:09:27;;;;;;;11.63;9.40;;;8.00;99.90;;;;;;5024460;28;20221;-70
2022/03/19 08:11:52;;;;;;;11.73;9.37;;;8.10;99.90;;;;;;4992268;28;20206;-69
2022/03/19 08:14:19;;;;;;;11.70;8.40;;;8.20;99.90;;;;;;5010486;28;20566;-66
2022/03/19 08:16:46;;;;;;;14.00;9.03;;;8.30;99.90;;;;;;5011585;28;20166;-69
2022/03/19 08:19:12;;;;;;;12.77;8.30;;;8.30;99.90;;;;;;5011776;28;20411;-69
2022/03/19 08:21:39;;;;;;;11.10;8.63;;;8.40;99.90;;;;;;5012880;28;20405;-69
2022/03/19 08:24:05;;;;;;;9.80;8.80;;;8.50;99.90;;;;;;5015535;28;20519;-69
2022/03/19 08:26:31;;;;;;;13.20;8.73;;;8.50;99.90;;;;;;5015596;28;20417;-69
2022/03/19 08:28:57;;;;;;;10.97;7.90;;;8.60;99.90;;;;;;5015532;28;20455;-69
2022/03/19 08:31:22;;;;;;;9.37;8.40;;;8.60;99.90;;;;;;4997862;28;20789;-68
2022/03/19 08:33:48;;;;;;;9.53;8.00;;;8.60;99.90;;;;;;5015232;28;20190;-69
2022/03/19 08:36:14;;;;;;;9.37;8.27;;;8.70;99.90;;;;;;5015799;28;20165;-69
2022/03/19 08:41:24;;;;;;;10.93;8.37;;;8.90;99.90;;;;;;5016100;28;20214;-69
2022/03/19 08:43:50;;;;;;;12.33;8.97;;;9.00;99.90;;;;;;5023959;28;20414;-69
2022/03/19 08:46:15;;;;;;;19.23;8.50;;;9.00;99.90;;;;;;5035500;28;20212;-69
2022/03/19 08:48:41;;;;;;;10.83;7.90;;;9.10;99.90;;;;;;5035637;28;20198;-69
2022/03/19 08:53:51;;;;;;;10.10;7.60;;;9.30;99.90;;;;;;5035325;28;20174;-70
2022/03/19 08:56:16;;;;;;;9.97;7.33;;;9.40;99.90;;;;;;5035420;28;20413;-69
2022/03/19 08:58:42;;;;;;;10.73;6.93;;;9.50;99.90;;;;;;5035530;28;20198;-68
2022/03/19 09:01:07;;;;;;;12.77;8.20;;;9.50;99.90;;;;;;5035434;28;20647;-68
2022/03/19 09:03:33;;;;;;;8.27;6.87;;;9.60;99.90;;;;;;5035812;28;20178;-69
2022/03/19 09:05:59;;;;;;;11.03;7.83;;;9.70;99.90;;;;;;5036453;28;20182;-69
2022/03/19 09:08:26;;;;;;;8.37;7.60;;;9.70;99.90;;;;;;5035566;28;20195;-69
2022/03/19 09:10:52;;;;;;;11.03;8.20;;;9.80;99.90;;;;;;5035896;28;20483;-69
2022/03/19 09:13:17;;;;;;;9.60;7.10;;;9.90;99.90;;;;;;5035267;28;20410;-69
2022/03/19 09:15:43;;;;;;;8.20;7.50;;;10.00;99.90;;;;;;5035702;28;20487;-69
2022/03/19 09:18:08;;;;;;;7.97;6.43;;;10.00;99.90;;;;;;5033253;28;20199;-69
2022/03/19 09:20:34;;;;;;;7.23;6.50;;;10.10;99.90;;;;;;5016215;28;20176;-68
2022/03/19 09:22:59;;;;;;;7.33;6.50;;;10.20;99.90;;;;;;5031437;28;20167;-69
2022/03/19 09:25:25;;;;;;;9.90;6.13;;;10.20;99.90;;;;;;5020392;28;20175;-69
2022/03/19 09:27:51;;;;;;;7.03;6.33;;;10.20;99.90;;;;;;5024909;28;20225;-68
2022/03/19 09:30:16;;;;;;;9.60;6.10;;;10.40;99.90;;;;;;5027586;28;20186;-68
2022/03/19 09:32:42;;;;;;;9.73;5.50;;;10.50;99.90;;;;;;5017793;28;20267;-69
2022/03/19 09:35:08;;;;;;;8.13;5.47;;;10.60;99.80;;;;;;5031472;28;20302;-68
2022/03/19 09:37:34;;;;;;;11.57;5.40;;;10.70;98.50;;;;;;5021802;28;20562;-69
2022/03/19 09:39:59;;;;;;;6.43;4.30;;;10.80;97.10;;;;;;5024869;28;20403;-68
2022/03/19 09:42:27;;;;;;;5.57;4.90;;;10.90;95.40;;;;;;5028267;28;20906;-67
2022/03/19 09:44:52;;;;;;;5.43;4.93;;;11.00;94.30;;;;;;5033060;28;20175;-68
2022/03/19 09:47:18;;;;;;;12.53;4.93;;;11.00;93.40;;;;;;5019374;28;20516;-68
2022/03/19 09:49:44;;;;;;;5.97;4.47;;;11.10;92.70;;;;;;5026751;28;20203;-67
2022/03/19 09:52:12;;;;;;;6.57;4.70;;;11.20;93.40;;;;;;5025921;28;20605;-70
2022/03/19 09:54:38;;;;;;;8.70;5.70;;;11.30;93.80;;;;;;5018155;28;20273;-67
2022/03/19 09:57:04;;;;;;;10.43;4.80;;;11.50;94.20;;;;;;5030650;28;20426;-67
2022/03/19 09:59:29;;;;;;;6.67;5.67;;;11.60;93.90;;;;;;5020501;28;20918;-67
2022/03/19 10:01:56;;;;;;;6.70;5.60;;;11.70;93.50;;;;;;5033810;28;20417;-68
2022/03/19 10:04:22;;;;;;;7.53;5.27;;;11.70;93.40;;;;;;5020622;28;20172;-68
2022/03/19 10:09:44;;;;;;;9.50;6.10;;;11.80;93.00;;;;;;5020675;28;20421;-69
2022/03/19 10:12:18;;;;;;;6.93;5.77;;;11.90;93.00;;;;;;5021647;28;20533;-70
2022/03/19 10:14:55;;;;;;;8.50;5.70;;;12.00;92.40;;;;;;5029596;28;20510;-69
2022/03/19 10:17:28;;;;;;;8.60;5.30;;;12.00;91.10;;;;;;4998312;28;20434;-69
2022/03/19 10:19:58;;;;;;;6.30;5.40;;;12.10;91.20;;;;;;5022988;28;20406;-69
2022/03/19 10:22:25;;;;;;;5.67;5.13;;;12.10;90.80;;;;;;5019865;28;20413;-70
2022/03/19 10:24:57;;;;;;;6.80;5.43;;;12.00;90.60;;;;;;5029826;28;20421;-68
2022/03/19 10:27:22;;;;;;;6.30;5.10;;;12.10;90.80;;;;;;5017905;28;20492;-69
2022/03/19 10:30:04;;;;;;;7.27;5.10;;;12.10;90.20;;;;;;5023474;28;20492;-70
2022/03/19 10:32:30;;;;;;;6.87;5.60;;;12.10;90.60;;;;;;5026251;28;20176;-70
2022/03/19 10:34:55;;;;;;;9.80;6.37;;;12.10;90.90;;;;;;5014231;28;20915;-67
2022/03/19 10:37:38;;;;;;;6.73;5.20;;;12.30;90.90;;;;;;5017320;28;20603;-67
2022/03/19 10:40:09;;;;;;;9.13;5.20;;;12.40;90.20;;;;;;5021598;28;20235;-68
2022/03/19 10:42:37;;;;;;;7.77;5.60;;;12.20;89.20;;;;;;5027024;28;20417;-68
2022/03/19 10:45:03;;;;;;;10.73;6.10;;;12.30;89.50;;;;;;5011203;28;20440;-68
2022/03/19 10:47:39;;;;;;;8.20;6.30;;;11.90;89.50;;;;;;5018533;28;20507;-68
2022/03/19 10:50:04;;;;;;;7.50;5.47;;;11.70;89.80;;;;;;5003575;28;20492;-68
2022/03/19 10:52:32;;;;;;;6.63;5.63;;;11.80;90.30;;;;;;5026316;28;20460;-67
2022/03/19 10:55:03;;;;;;;7.90;5.47;;;11.70;89.70;;;;;;5015789;28;20602;-67
2022/03/19 10:57:29;;;;;;;23.47;6.30;;;11.90;90.10;;;;;;5025988;28;20516;-68
2022/03/19 10:59:54;;;;;;;12.20;5.17;;;11.80;88.20;;;;;;5022125;28;20409;-68
2022/03/19 11:02:21;;;;;;;7.20;4.70;;;11.90;87.90;;;;;;5019189;28;20247;-70
2022/03/19 11:04:49;;;;;;;12.63;5.60;;;11.90;88.50;;;;;;5029025;28;20179;-68
2022/03/19 11:07:18;;;;;;;15.33;5.60;;;12.00;89.00;;;;;;5016205;28;20854;-68
2022/03/19 11:09:44;;;;;;;9.80;5.53;;;12.20;88.10;;;;;;5023168;28;20822;-68
2022/03/19 11:12:17;;;;;;;5.23;4.73;;;12.20;86.30;;;;;;5022715;28;20445;-67
2022/03/19 11:14:44;;;;;;;6.57;4.83;;;12.20;86.30;;;;;;5015597;28;20445;-71
2022/03/19 11:17:24;;;;;;;7.90;4.83;;;12.30;86.60;;;;;;5027788;28;20431;-69
2022/03/19 11:20:05;;;;;;;8.33;4.33;;;12.40;86.10;;;;;;5036350;28;20421;-69
2022/03/19 11:22:39;;;;;;;4.70;4.00;;;12.50;83.70;;;;;;5019836;28;20424;-67
2022/03/19 11:25:44;;;;;;;5.90;4.70;;;12.40;83.50;;;;;;5013864;28;20484;-69
2022/03/19 11:28:12;;;;;;;7.50;4.43;;;12.50;83.80;;;;;;4973733;28;1275471;-68
2022/03/19 11:31:01;;;;;;;6.37;3.97;;;12.60;83.70;;;;;;5018691;28;20648;-70
2022/03/19 11:33:30;;;;;;;9.73;4.30;;;12.60;82.10;;;;;;5004935;28;20421;-69
2022/03/19 11:35:58;;;;;;;10.00;3.70;;;12.60;80.10;;;;;;5024036;28;20868;-70
2022/03/19 11:38:24;;;;;;;10.53;3.70;;;12.60;79.40;;;;;;5026278;28;20436;-69
2022/03/19 11:40:55;;;;;;;5.70;4.00;;;12.60;78.60;;;;;;5016800;28;20419;-69
2022/03/19 11:43:27;;;;;;;5.13;3.73;;;12.40;76.00;;;;;;5011332;28;20519;-69
2022/03/19 11:46:11;;;;;;;6.23;3.47;;;12.40;75.90;;;;;;5020057;28;20479;-70
2022/03/19 11:48:36;;;;;;;3.00;2.70;;;12.40;75.90;;;;;;4998418;28;20815;-70
2022/03/19 11:51:37;;;;;;;4.33;3.17;;;12.30;72.50;;;;;;5032400;28;20437;-71
2022/03/19 11:54:16;;;;;;;5.17;2.90;;;12.30;72.30;;;;;;5003213;28;20226;-68
2022/03/19 11:56:41;;;;;;;3.50;2.67;;;12.40;71.20;;;;;;5030203;28;20479;-69
2022/03/19 11:59:44;;;;;;;3.73;2.57;;;12.40;69.60;;;;;;5019478;28;20486;-69
2022/03/19 12:02:12;;;;;;;3.00;2.20;;;12.30;70.50;;;;;;5023652;28;20282;-67
2022/03/19 12:04:51;;;;;;;3.27;2.97;;;12.40;69.40;;;;;;5013040;28;20499;-68
2022/03/19 12:07:40;;;;;;;4.40;2.30;;;12.30;67.30;;;;;;5019301;28;20491;-68
2022/03/19 12:10:20;;;;;;;3.23;2.10;;;12.30;67.00;;;;;;5006737;28;20457;-68
2022/03/19 12:12:47;;;;;;;5.37;2.10;;;12.40;66.80;;;;;;5033246;28;20502;-68
2022/03/19 12:15:31;;;;;;;2.60;2.30;;;12.40;65.90;;;;;;5002700;28;20481;-69
2022/03/19 12:18:26;;;;;;;3.30;1.93;;;12.40;64.30;;;;;;5025297;28;20492;-70
2022/03/19 12:20:53;;;;;;;2.83;2.00;;;12.30;64.00;;;;;;5031419;28;20488;-68
2022/03/19 12:23:19;;;;;;;2.10;1.90;;;12.20;63.30;;;;;;5021965;28;20458;-69
2022/03/19 12:26:00;;;;;;;3.60;2.00;;;12.10;62.70;;;;;;5024111;28;20457;-69
2022/03/19 12:28:25;;;;;;;4.23;2.20;;;12.10;64.50;;;;;;5026588;28;20229;-69
2022/03/19 12:30:51;;;;;;;5.30;2.20;;;12.20;63.00;;;;;;5036395;28;20429;-69
2022/03/19 12:33:17;;;;;;;2.20;1.90;;;12.10;61.50;;;;;;5024077;28;20579;-69
2022/03/19 12:35:43;;;;;;;2.33;1.90;;;12.20;62.30;;;;;;5030802;28;20199;-69
2022/03/19 12:38:10;;;;;;;6.90;2.37;;;12.20;63.70;;;;;;5028036;28;20613;-68
2022/03/19 12:43:22;;;;;;;3.87;2.27;;;12.20;62.40;;;;;;5002098;28;20461;-67
2022/03/19 12:45:52;;;;;;;3.07;2.30;;;12.30;62.10;;;;;;5006782;28;20425;-68
2022/03/19 12:48:20;;;;;;;2.10;1.83;;;12.30;63.00;;;;;;5023120;28;20454;-67
2022/03/19 12:50:56;;;;;;;5.27;2.20;;;12.30;62.10;;;;;;5031717;28;20409;-68
2022/03/19 12:53:35;;;;;;;2.37;1.80;;;12.10;60.80;;;;;;5004917;28;20421;-68
2022/03/19 12:56:28;;;;;;;3.33;1.80;;;12.10;61.00;;;;;;5024905;28;20454;-67
2022/03/19 12:58:56;;;;;;;2.43;1.40;;;12.10;62.10;;;;;;5030995;28;20869;-68
2022/03/19 13:01:27;;;;;;;3.90;1.90;;;12.20;61.10;;;;;;5019341;28;20433;-68
2022/03/19 13:04:01;;;;;;;3.80;2.00;;;12.20;61.50;;;;;;5025275;28;20403;-68
2022/03/19 13:06:45;;;;;;;2.20;1.73;;;12.20;59.70;;;;;;5028911;28;20413;-68